Decoded Metar for KOVS (BOSCOBEL in WI, USA) (IATA:OVS) | Meteo·Mobile Aviation Weather
aviador You're here:

KOVS Decoded Metar

BOSCOBEL in WI, USA
Report Time2020-02-22 21:53:00
UTC Time2020-02-22 22:20:49
Flight Rules vfr VFR
Wind190° at 04 kt
W.Decomp.*RWY 20: 4.0 kt HW 0.6 kt LCW
RWY 25: 2.1 kt HW 3.4 kt LCW
Visibility9999 m
Phenomena:N/A
Clouds:N/A
Expected CloudBase > 3,600 ft AGL from Temp-Dew spread
CeilingNone
Temp06°C (ISA -8)
Dew Point-3°C (53% RH)
AAT2.2°C
QNH1017 hPa
Density Alt-328 ft
Elevation663 ft
Report Wrong Elevation
Raw Report
KOVS 222153Z AUTO 19004KT 10SM CLR 06/M03 A3002 RMK AO2 SLP174
T00611033=

Extra information for KOVS:More info

Metar Taf Metar & Taf Last 4 Metars F.Rules Stats Wind Profile Meteogram Temp Stats Airport Information Weather charts Add Link Nearby VenuesMetar ALERT Operation Metar Decoded Social comments

AIRNAV info for KOVS